Minden, Iowa
Current Conditions -  °F | °C
As of 2:35 PM on Saturday 25 Oct 2014 (Local Time) from KHNR Reporting Station
Clear Clear  
Wind Chill: 72°   Ceiling: Unl
Heat Index: 72°   Visibility: 10mi
Dew Point: 37°   Wind: 7mph
Humidity: 29%   Direction: 30°NNE
Pressure: 30.12"   Gusts: 13mph
Location:  41.47°N, 95.54°W
Report Text: KHNR 251935Z AUTO 03006G11KT 10SM CLR 22/03 A3012 RMK AO2
Loading
Personal Weather Stations






























Interactive Weather Map
Tropical Storm Tracking
New forecast layout! Learn more

10-Day Weather Forecast

Advertisements
Track Severe Weather on mobile